Time;durP1;ratioP1;P1;durP2;ratioP2;P2;SDS_P1;SDS_P2;PMS_P1;PMS_P2;Temp;Humidity;BMP_temperature;BMP_pressure;BME280_temperature;BME280_humidity;BME280_pressure;Samples;Min_cycle;Max_cycle;Signal;HPM_P1;HPM_P2
2023/07/18 00:00:51;;;;;;;14.45;5.22;;;;;;;24.84;43.06;100894.19;5051301;28;20447;-52
2023/07/18 00:03:17;;;;;;;10.77;5.05;;;;;;;24.68;42.83;100903.78;5040847;28;20656;-52
2023/07/18 00:05:43;;;;;;;15.13;4.80;;;;;;;24.73;43.08;100900.97;5032278;28;20025;-51
2023/07/18 00:08:09;;;;;;;15.15;5.28;;;;;;;24.66;42.76;100889.59;5037837;28;20021;-53
2023/07/18 00:10:36;;;;;;;13.07;5.57;;;;;;;24.44;43.51;100885.56;5030862;28;20025;-51
2023/07/18 00:13:03;;;;;;;13.35;4.80;;;;;;;24.16;44.04;100900.19;5043547;28;20035;-52
2023/07/18 00:15:29;;;;;;;12.68;5.28;;;;;;;23.96;44.50;100910.28;5051208;28;20061;-52
2023/07/18 00:17:55;;;;;;;11.00;4.85;;;;;;;23.81;45.28;100902.28;5051339;28;20021;-52
2023/07/18 00:20:23;;;;;;;13.73;4.55;;;;;;;23.55;45.33;100900.94;5047212;28;20483;-51
2023/07/18 00:22:50;;;;;;;16.83;5.03;;;;;;;23.42;46.28;100902.44;5051275;28;20033;-51
2023/07/18 00:25:20;;;;;;;19.83;5.88;;;;;;;23.21;46.42;100904.59;5051137;28;20025;-51
2023/07/18 00:27:49;;;;;;;15.35;5.63;;;;;;;23.09;47.29;100896.78;5051190;28;20473;-53
2023/07/18 00:30:17;;;;;;;12.52;5.78;;;;;;;22.68;47.51;100893.56;5051293;28;20478;-51
2023/07/18 00:32:45;;;;;;;17.65;5.50;;;;;;;22.72;48.74;100896.56;5051102;28;20112;-53
2023/07/18 00:35:13;;;;;;;16.88;5.80;;;;;;;23.03;48.52;100892.47;5051059;28;20075;-52
2023/07/18 00:37:40;;;;;;;16.08;5.22;;;;;;;23.12;47.91;100892.66;5051094;28;20040;-51
2023/07/18 00:40:11;;;;;;;18.10;6.35;;;;;;;22.67;48.09;100884.59;5032865;28;20517;-53
2023/07/18 00:42:38;;;;;;;18.52;6.10;;;;;;;22.92;48.49;100886.28;5050493;28;20036;-51
2023/07/18 00:45:06;;;;;;;16.63;5.15;;;;;;;22.58;49.15;100880.00;5050986;28;20037;-51
2023/07/18 00:47:43;;;;;;;23.73;7.15;;;;;;;22.39;49.37;100877.97;5054437;28;20032;-52
2023/07/18 00:50:17;;;;;;;20.10;5.75;;;;;;;22.23;49.69;100876.47;5052738;28;20033;-51
2023/07/18 00:52:51;;;;;;;20.50;6.80;;;;;;;21.98;49.27;100887.47;5054866;28;20387;-51
2023/07/18 00:55:18;;;;;;;22.13;6.57;;;;;;;21.64;50.82;100885.44;5052179;28;20044;-48
2023/07/18 00:57:46;;;;;;;21.20;6.70;;;;;;;21.39;52.16;100877.41;5049376;28;20029;-48
2023/07/18 01:00:14;;;;;;;17.58;5.68;;;;;;;21.49;51.81;100883.63;5054406;28;20021;-51
2023/07/18 01:02:43;;;;;;;21.55;7.07;;;;;;;21.22;52.96;100883.13;5054549;28;20061;-49
2023/07/18 01:05:10;;;;;;;22.42;7.15;;;;;;;21.16;53.00;100886.94;5054886;28;20558;-48
2023/07/18 01:07:40;;;;;;;22.75;7.20;;;;;;;20.89;53.81;100879.91;5054665;28;20108;-49
2023/07/18 01:10:24;;;;;;;21.67;6.85;;;;;;;21.01;54.42;100879.63;5054420;28;20472;-50
2023/07/18 01:12:57;;;;;;;20.77;6.82;;;;;;;21.03;54.77;100882.88;5050087;28;20036;-48
2023/07/18 01:15:24;;;;;;;22.40;6.22;;;;;;;21.24;53.73;100889.91;5053337;28;20024;-48
2023/07/18 01:17:51;;;;;;;19.42;6.70;;;;;;;20.96;54.75;100883.16;5052192;28;20017;-51
2023/07/18 01:20:21;;;;;;;22.30;7.72;;;;;;;21.16;54.04;100892.41;5039158;28;20120;-50
2023/07/18 01:22:50;;;;;;;18.50;6.72;;;;;;;21.00;54.23;100889.69;5047434;28;20036;-47
2023/07/18 01:25:17;;;;;;;23.23;6.72;;;;;;;21.13;54.96;100884.78;5051878;28;20032;-48
2023/07/18 01:27:45;;;;;;;22.15;7.00;;;;;;;21.01;55.11;100885.88;5052642;28;20120;-47
2023/07/18 01:30:12;;;;;;;24.98;8.75;;;;;;;20.81;54.99;100888.59;5050725;28;20104;-50
2023/07/18 01:32:38;;;;;;;16.50;6.55;;;;;;;20.75;55.15;100893.22;5052978;28;20526;-49
2023/07/18 01:35:08;;;;;;;22.05;7.38;;;;;;;20.74;55.47;100896.22;5053605;28;20056;-49
2023/07/18 01:37:36;;;;;;;21.00;7.43;;;;;;;20.70;55.83;100890.50;5033357;28;20052;-49
2023/07/18 01:40:05;;;;;;;22.85;7.00;;;;;;;20.51;56.23;100889.44;5036477;28;20056;-47
2023/07/18 01:42:32;;;;;;;26.17;7.13;;;;;;;20.54;56.30;100900.59;5053416;28;20028;-46
2023/07/18 01:44:58;;;;;;;20.55;6.97;;;;;;;20.73;56.33;100894.59;5053554;28;20029;-48
2023/07/18 01:47:25;;;;;;;28.48;8.77;;;;;;;20.72;55.64;100896.50;5051965;28;20086;-48
2023/07/18 01:49:51;;;;;;;25.02;7.30;;;;;;;20.64;56.55;100896.22;5053674;28;20025;-48
2023/07/18 01:52:18;;;;;;;29.05;8.77;;;;;;;20.60;56.05;100898.69;5053609;28;20552;-46
2023/07/18 01:54:44;;;;;;;35.55;7.78;;;;;;;20.41;56.24;100902.97;5053298;28;20422;-46
2023/07/18 01:57:10;;;;;;;16.17;6.75;;;;;;;20.47;56.53;100901.94;5051109;28;20025;-47
2023/07/18 01:59:36;;;;;;;29.17;8.02;;;;;;;20.46;56.26;100897.59;5052212;28;20033;-48
2023/07/18 02:02:06;;;;;;;21.88;7.30;;;;;;;20.34;56.77;100895.09;5053493;28;20475;-46
2023/07/18 02:04:32;;;;;;;23.02;7.47;;;;;;;20.34;56.47;100897.81;5053502;28;20120;-48
2023/07/18 02:06:59;;;;;;;25.33;8.40;;;;;;;20.42;56.70;100901.88;5052473;28;20108;-47
2023/07/18 02:09:25;;;;;;;27.25;8.20;;;;;;;20.33;56.06;100911.69;5053321;28;20390;-46
2023/07/18 02:11:51;;;;;;;28.48;7.55;;;;;;;20.33;56.55;100903.53;5051742;28;20115;-46
2023/07/18 02:14:20;;;;;;;22.20;7.60;;;;;;;20.57;55.70;100896.50;5048501;28;20018;-49
2023/07/18 02:16:47;;;;;;;24.63;7.65;;;;;;;20.45;56.03;100906.81;5040486;28;20045;-45
2023/07/18 02:19:13;;;;;;;30.23;7.78;;;;;;;20.31;57.02;100904.59;5051906;28;20033;-49
2023/07/18 02:21:39;;;;;;;20.17;7.00;;;;;;;20.41;56.04;100911.94;5053180;28;20368;-46
2023/07/18 02:24:06;;;;;;;20.13;6.72;;;;;;;20.48;56.12;100920.69;5053280;28;20025;-47
2023/07/18 02:26:32;;;;;;;22.23;8.02;;;;;;;20.40;55.87;100926.63;5053110;28;20027;-46
2023/07/18 02:28:58;;;;;;;22.80;7.80;;;;;;;20.22;56.94;100921.72;5052773;28;20032;-47
2023/07/18 02:31:24;;;;;;;26.83;8.13;;;;;;;19.94;57.96;100921.09;5053089;28;20051;-47
2023/07/18 02:33:51;;;;;;;26.10;7.65;;;;;;;19.90;57.73;100927.31;5052928;28;20144;-46
2023/07/18 02:36:17;;;;;;;27.67;8.43;;;;;;;19.65;58.92;100917.94;5035167;28;20382;-48
2023/07/18 02:38:44;;;;;;;23.48;7.60;;;;;;;20.00;58.26;100930.88;5052680;28;20025;-46
2023/07/18 02:41:10;;;;;;;30.17;8.77;;;;;;;19.75;58.21;100919.91;5051604;28;20033;-48
2023/07/18 02:43:36;;;;;;;25.58;8.60;;;;;;;19.49;59.06;100927.91;5052188;28;20032;-47
2023/07/18 02:46:02;;;;;;;30.95;9.60;;;;;;;19.22;60.43;100919.88;5048231;28;20032;-50
2023/07/18 02:48:29;;;;;;;28.65;8.00;;;;;;;19.21;60.45;100917.41;5052400;28;20082;-48
2023/07/18 02:50:55;;;;;;;28.60;8.10;;;;;;;18.65;62.52;100909.63;5052202;28;20395;-49
2023/07/18 02:53:21;;;;;;;31.05;9.60;;;;;;;18.43;63.24;100911.59;5051566;28;20037;-47
2023/07/18 02:55:49;;;;;;;31.15;10.05;;;;;;;17.91;65.00;100901.28;5052849;28;20418;-46
2023/07/18 02:58:15;;;;;;;32.53;9.20;;;;;;;17.78;66.30;100909.81;5051411;28;20025;-47
2023/07/18 03:00:41;;;;;;;22.20;8.75;;;;;;;17.79;66.33;100916.84;5049958;28;20033;-48
2023/07/18 03:03:08;;;;;;;34.78;9.52;;;;;;;17.51;67.72;100924.03;5052178;28;20111;-47
2023/07/18 03:05:34;;;;;;;27.08;8.55;;;;;;;17.55;67.94;100913.53;5051887;28;20020;-47
2023/07/18 03:08:00;;;;;;;31.45;9.70;;;;;;;17.44;67.78;100923.41;5051841;28;20028;-46
2023/07/18 03:10:27;;;;;;;27.70;8.95;;;;;;;17.31;68.25;100918.34;5051536;28;20031;-45
2023/07/18 03:12:53;;;;;;;24.25;9.15;;;;;;;17.11;69.72;100925.09;5050861;28;20021;-46
2023/07/18 03:15:21;;;;;;;32.15;10.10;;;;;;;16.97;70.31;100918.38;5045547;28;20491;-46
2023/07/18 03:17:47;;;;;;;24.35;8.77;;;;;;;16.70;71.51;100918.16;5045389;28;20036;-46
2023/07/18 03:20:17;;;;;;;38.83;10.40;;;;;;;16.63;72.14;100926.44;5047338;28;20040;-49
2023/07/18 03:22:48;;;;;;;28.52;9.32;;;;;;;16.50;72.84;100921.34;5041105;28;20029;-46
2023/07/18 03:25:14;;;;;;;34.40;10.38;;;;;;;16.38;73.32;100917.91;5043149;28;20122;-45
2023/07/18 03:27:41;;;;;;;31.15;9.63;;;;;;;16.34;73.36;100922.13;5049312;28;20087;-45
2023/07/18 03:30:10;;;;;;;30.95;10.10;;;;;;;16.20;74.01;100915.38;5045314;28;20507;-44
2023/07/18 03:32:38;;;;;;;27.30;9.23;;;;;;;16.15;74.55;100920.69;5050201;28;20103;-48
2023/07/18 03:35:09;;;;;;;29.98;9.85;;;;;;;16.00;74.94;100930.13;5044964;28;20053;-48
2023/07/18 03:37:35;;;;;;;36.08;10.07;;;;;;;15.93;75.12;100918.63;5040702;28;20021;-48
2023/07/18 03:40:04;;;;;;;29.98;10.02;;;;;;;15.86;75.71;100917.97;5051268;28;20088;-45
2023/07/18 03:42:30;;;;;;;32.72;9.20;;;;;;;15.82;76.06;100914.09;5051475;28;20021;-45
2023/07/18 03:44:56;;;;;;;31.90;10.43;;;;;;;15.83;75.89;100915.75;5051465;28;20102;-45
2023/07/18 03:47:23;;;;;;;31.52;10.45;;;;;;;15.70;76.57;100916.00;5050799;28;20032;-48
2023/07/18 03:49:50;;;;;;;30.65;10.38;;;;;;;15.66;76.81;100928.34;5049500;28;20095;-46
2023/07/18 03:52:16;;;;;;;37.88;10.27;;;;;;;15.58;77.09;100921.38;5050794;28;20025;-46
2023/07/18 03:54:45;;;;;;;38.50;9.45;;;;;;;15.55;76.93;100930.78;5051588;28;20048;-48
2023/07/18 03:57:12;;;;;;;29.15;9.30;;;;;;;15.47;77.64;100933.84;5051366;28;20040;-46
2023/07/18 03:59:38;;;;;;;28.98;9.23;;;;;;;15.48;77.62;100934.66;5049872;28;20110;-47
2023/07/18 04:02:05;;;;;;;30.15;9.93;;;;;;;15.45;77.85;100935.97;5050259;28;20025;-48
2023/07/18 04:04:31;;;;;;;30.98;9.35;;;;;;;15.37;77.80;100935.47;5050452;28;20504;-49
2023/07/18 04:06:58;;;;;;;34.35;9.77;;;;;;;15.36;77.99;100937.34;5047614;28;20025;-49
2023/07/18 04:09:24;;;;;;;35.88;9.38;;;;;;;15.35;77.82;100943.81;5047246;28;20029;-46
2023/07/18 04:11:50;;;;;;;34.38;9.75;;;;;;;15.38;77.85;100948.75;5049257;28;20029;-48
2023/07/18 04:14:17;;;;;;;30.98;9.38;;;;;;;15.37;78.11;100954.34;5046002;28;20032;-48
2023/07/18 04:16:43;;;;;;;33.08;8.73;;;;;;;15.35;78.12;100954.59;5042856;28;20041;-45
2023/07/18 04:19:09;;;;;;;37.53;9.60;;;;;;;15.27;78.54;100966.56;5050603;28;20115;-47
2023/07/18 04:21:35;;;;;;;32.67;9.65;;;;;;;15.24;78.65;100958.94;5054857;28;20017;-44
2023/07/18 04:24:04;;;;;;;30.90;9.55;;;;;;;15.10;79.26;100962.06;5045145;28;20037;-49
2023/07/18 04:26:30;;;;;;;28.73;9.48;;;;;;;15.10;79.76;100959.38;5054156;28;20103;-44
2023/07/18 04:28:57;;;;;;;29.65;9.88;;;;;;;15.12;79.62;100960.81;5053621;28;20028;-47
2023/07/18 04:31:23;;;;;;;34.38;9.85;;;;;;;15.13;79.78;100970.53;5052739;28;20119;-45
2023/07/18 04:33:49;;;;;;;36.20;9.60;;;;;;;15.14;79.65;100976.75;5051455;28;20029;-47
2023/07/18 04:36:16;;;;;;;32.35;9.75;;;;;;;15.08;79.89;100978.50;5054018;28;20036;-46
2023/07/18 04:38:42;;;;;;;28.67;9.32;;;;;;;15.03;80.14;100973.78;5051553;28;20029;-48
2023/07/18 04:41:08;;;;;;;30.10;9.63;;;;;;;15.06;80.18;100975.22;5053677;28;20471;-44
2023/07/18 04:43:35;;;;;;;30.73;9.30;;;;;;;15.07;80.37;100981.44;5052718;28;20032;-44
2023/07/18 04:46:01;;;;;;;35.80;9.85;;;;;;;14.98;80.42;100986.31;5053254;28;20029;-47
2023/07/18 04:48:27;;;;;;;31.65;9.40;;;;;;;15.00;80.71;100987.75;5053662;28;20502;-45
2023/07/18 04:50:59;;;;;;;28.30;8.82;;;;;;;14.95;80.62;100982.22;5053318;28;20040;-45
2023/07/18 04:53:29;;;;;;;29.40;8.55;;;;;;;14.95;80.59;100989.50;5052561;28;20060;-48
2023/07/18 04:55:57;;;;;;;36.78;9.02;;;;;;;14.92;81.10;100982.69;5053529;28;20031;-48
2023/07/18 04:58:27;;;;;;;31.27;9.55;;;;;;;14.87;81.49;100976.34;5052898;28;20029;-45
2023/07/18 05:00:56;;;;;;;45.20;8.93;;;;;;;14.77;81.89;100982.31;5052898;28;20025;-48
2023/07/18 05:03:24;;;;;;;31.65;9.82;;;;;;;14.71;82.21;100983.22;5051314;28;20087;-48
2023/07/18 05:05:51;;;;;;;30.45;9.45;;;;;;;14.85;81.66;100979.28;5052398;28;20033;-45
2023/07/18 05:08:17;;;;;;;28.33;8.45;;;;;;;14.84;81.86;100980.34;5050174;28;20056;-48
2023/07/18 05:10:44;;;;;;;38.58;9.73;;;;;;;14.82;81.82;100987.81;5033912;28;20044;-45
2023/07/18 05:13:10;;;;;;;28.13;9.57;;;;;;;14.83;81.89;100983.25;5038595;28;20032;-46
2023/07/18 05:15:37;;;;;;;37.33;9.75;;;;;;;14.75;82.01;100979.81;5046954;28;20131;-46
2023/07/18 05:18:04;;;;;;;33.53;10.02;;;;;;;14.72;82.26;100979.47;5052983;28;20029;-49
2023/07/18 05:20:30;;;;;;;33.30;9.98;;;;;;;14.75;82.09;100987.09;5053127;28;20048;-47
2023/07/18 05:22:58;;;;;;;37.50;9.32;;;;;;;14.73;82.37;100978.44;5051193;28;20045;-45
2023/07/18 05:25:24;;;;;;;29.95;9.38;;;;;;;14.77;82.05;100982.31;5052692;28;20036;-45
2023/07/18 05:27:50;;;;;;;33.00;10.70;;;;;;;14.77;82.05;100985.00;5054015;28;20416;-48
2023/07/18 05:30:19;;;;;;;29.40;9.70;;;;;;;14.78;82.42;100981.25;5053678;28;20025;-48
2023/07/18 05:32:46;;;;;;;40.88;10.02;;;;;;;14.80;82.01;100979.16;5053368;28;20028;-46
2023/07/18 05:35:16;;;;;;;33.90;10.20;;;;;;;14.81;82.02;100982.66;5053422;28;20021;-45
2023/07/18 05:37:43;;;;;;;23.15;8.63;;;;;;;14.75;82.17;100985.22;5052844;28;20060;-47
2023/07/18 05:40:11;;;;;;;34.78;10.23;;;;;;;14.77;82.35;100982.31;5050669;28;20029;-48
2023/07/18 05:42:38;;;;;;;28.50;8.90;;;;;;;14.76;82.81;100981.47;5051780;28;20032;-49
2023/07/18 05:45:05;;;;;;;31.75;9.68;;;;;;;14.77;82.65;100985.00;5053500;28;20063;-49
2023/07/18 05:47:32;;;;;;;36.83;9.13;;;;;;;14.75;82.35;100990.59;5052513;28;20044;-49
2023/07/18 05:49:58;;;;;;;35.35;10.75;;;;;;;14.60;82.76;100986.69;5053354;28;20029;-45
2023/07/18 05:52:25;;;;;;;40.20;10.05;;;;;;;14.71;82.64;100983.22;5050925;28;20149;-47
2023/07/18 05:54:52;;;;;;;39.97;10.15;;;;;;;14.71;82.65;100988.59;5048474;28;20063;-47
2023/07/18 05:57:19;;;;;;;30.67;8.88;;;;;;;14.82;81.98;100987.81;5053704;28;20037;-47
2023/07/18 05:59:45;;;;;;;35.72;10.40;;;;;;;14.76;81.78;100981.47;5050397;28;20692;-49
2023/07/18 06:02:11;;;;;;;27.25;8.57;;;;;;;14.76;81.41;100983.34;5053686;28;20033;-46
2023/07/18 06:04:38;;;;;;;34.05;9.07;;;;;;;14.80;81.25;100989.91;5051327;28;20516;-46
2023/07/18 06:07:04;;;;;;;38.85;10.35;;;;;;;14.83;81.18;100977.88;5051267;28;20029;-49
2023/07/18 06:09:31;;;;;;;39.33;9.65;;;;;;;14.81;81.52;100980.78;5051636;28;20029;-46
2023/07/18 06:11:58;;;;;;;28.40;9.40;;;;;;;14.80;81.36;100981.84;5051035;28;20040;-48
2023/07/18 06:14:25;;;;;;;36.72;9.95;;;;;;;14.73;81.75;100981.94;5040268;28;20218;-48
2023/07/18 06:16:51;;;;;;;33.30;9.75;;;;;;;14.73;81.62;100984.63;5053180;28;20045;-47
2023/07/18 06:19:17;;;;;;;34.33;9.10;;;;;;;14.65;82.12;100978.75;5052905;28;20056;-45
2023/07/18 06:21:44;;;;;;;35.97;9.20;;;;;;;14.64;82.32;100979.78;5052803;28;20052;-48
2023/07/18 06:24:10;;;;;;;30.05;9.48;;;;;;;14.63;82.33;100972.78;5051129;28;20029;-48
2023/07/18 06:26:36;;;;;;;39.33;9.95;;;;;;;14.56;82.66;100983.66;5051673;28;20487;-48
2023/07/18 06:29:03;;;;;;;35.35;10.20;;;;;;;14.52;82.86;100977.06;5051019;28;20032;-45
2023/07/18 06:31:29;;;;;;;37.53;9.50;;;;;;;14.44;83.33;100980.88;5018863;28;20445;-44
2023/07/18 06:33:55;;;;;;;31.45;9.65;;;;;;;14.48;83.11;100984.75;5037894;28;20032;-47
2023/07/18 06:36:23;;;;;;;31.02;9.48;;;;;;;14.51;83.03;100984.31;5052204;28;20367;-45
2023/07/18 06:38:50;;;;;;;30.85;8.88;;;;;;;14.55;83.07;100981.16;5050751;28;20453;-45
2023/07/18 06:41:16;;;;;;;29.35;10.27;;;;;;;14.50;83.11;100992.63;5051319;28;20025;-48
2023/07/18 06:43:42;;;;;;;33.35;10.13;;;;;;;14.46;84.15;100986.84;5049445;28;20031;-45
2023/07/18 06:46:09;;;;;;;30.83;10.77;;;;;;;14.40;84.25;100993.16;5051668;28;20032;-48
2023/07/18 06:48:35;;;;;;;39.97;10.43;;;;;;;14.33;84.97;100987.03;5051447;28;20017;-47
2023/07/18 06:51:06;;;;;;;42.50;10.60;;;;;;;14.39;84.90;100996.91;5052730;28;20029;-47
2023/07/18 06:53:33;;;;;;;37.85;9.82;;;;;;;14.36;85.02;100989.25;5050419;28;20448;-45
2023/07/18 06:56:00;;;;;;;29.95;9.85;;;;;;;14.35;85.11;100986.81;5051486;28;20044;-46
2023/07/18 06:58:26;;;;;;;41.33;10.23;;;;;;;14.35;85.36;100993.00;5051002;28;20055;-44
2023/07/18 07:00:52;;;;;;;38.35;11.13;;;;;;;14.40;84.89;100990.47;5048522;28;20041;-48
2023/07/18 07:03:19;;;;;;;36.42;10.90;;;;;;;14.39;84.96;100990.69;5049701;28;20041;-44
2023/07/18 07:05:45;;;;;;;33.88;10.10;;;;;;;14.35;85.23;100995.69;5051182;28;20463;-48
2023/07/18 07:08:13;;;;;;;32.35;10.57;;;;;;;14.26;86.12;100994.34;5049900;28;20025;-44
2023/07/18 07:10:41;;;;;;;33.42;10.43;;;;;;;14.24;86.30;101005.34;5051943;28;20435;-46
2023/07/18 07:13:09;;;;;;;33.63;10.32;;;;;;;14.25;86.08;101000.78;5040113;28;20479;-45
2023/07/18 07:15:35;;;;;;;29.90;9.88;;;;;;;14.21;86.35;101008.50;5046370;28;20072;-47
2023/07/18 07:18:04;;;;;;;37.58;10.80;;;;;;;14.16;86.72;100997.59;5050276;28;20029;-47
2023/07/18 07:20:31;;;;;;;41.25;10.80;;;;;;;14.20;86.37;101004.16;5049375;28;20513;-49
2023/07/18 07:22:57;;;;;;;33.28;10.75;;;;;;;14.16;86.88;100997.59;5051977;28;20506;-48
2023/07/18 07:25:29;;;;;;;39.55;11.65;;;;;;;14.11;87.31;101004.72;5049924;28;20510;-46
2023/07/18 07:27:56;;;;;;;40.90;10.80;;;;;;;14.10;87.08;101000.34;5048950;28;20111;-45
2023/07/18 07:30:22;;;;;;;38.53;11.07;;;;;;;14.12;86.90;101006.34;5049720;28;20034;-48
2023/07/18 07:32:53;;;;;;;40.17;10.10;;;;;;;14.13;87.28;101008.00;5051624;28;20475;-45
2023/07/18 07:35:20;;;;;;;38.90;10.60;;;;;;;14.15;87.07;101008.56;5049501;28;20067;-45
2023/07/18 07:37:51;;;;;;;41.10;10.75;;;;;;;14.16;87.30;101007.56;5050380;28;20043;-45
2023/07/18 07:40:19;;;;;;;38.40;11.23;;;;;;;14.16;87.16;101010.25;5048761;28;20482;-47
2023/07/18 07:42:46;;;;;;;43.45;12.35;;;;;;;14.13;87.34;101003.41;5049409;28;20072;-48
2023/07/18 07:45:14;;;;;;;45.42;11.88;;;;;;;13.94;88.19;101017.94;5050989;28;20036;-46
2023/07/18 07:47:40;;;;;;;41.80;11.77;;;;;;;14.02;87.62;101001.47;5051677;28;20486;-45
2023/07/18 07:50:08;;;;;;;38.03;11.07;;;;;;;14.03;87.98;101010.38;5048024;28;20067;-45
2023/07/18 07:52:35;;;;;;;39.55;11.30;;;;;;;13.91;88.54;101019.19;5047866;28;20070;-49
2023/07/18 07:55:02;;;;;;;49.50;12.70;;;;;;;14.02;88.41;101012.25;5051157;28;20029;-47
2023/07/18 07:57:30;;;;;;;35.20;10.23;;;;;;;14.03;88.46;101007.69;5051571;28;20024;-45
2023/07/18 07:59:56;;;;;;;39.25;10.77;;;;;;;13.92;88.92;101012.75;5049215;28;20502;-45
2023/07/18 08:02:22;;;;;;;35.92;11.10;;;;;;;13.86;89.07;101015.53;5046202;28;20179;-46
2023/07/18 08:04:49;;;;;;;41.50;11.80;;;;;;;13.96;89.06;101010.47;5051028;28;20204;-47
2023/07/18 08:07:16;;;;;;;37.30;10.77;;;;;;;13.95;88.85;101014.19;5049831;28;20154;-46
2023/07/18 08:09:43;;;;;;;43.40;11.10;;;;;;;13.86;89.25;101015.53;5050304;28;20047;-48
2023/07/18 08:12:12;;;;;;;40.13;11.52;;;;;;;13.87;89.41;101019.88;5046526;28;20803;-45
2023/07/18 08:14:38;;;;;;;38.17;11.23;;;;;;;13.89;89.26;101023.16;5046578;28;20036;-47
2023/07/18 08:17:06;;;;;;;42.05;12.65;;;;;;;13.83;89.59;101016.00;5050715;28;20133;-48
2023/07/18 08:19:33;;;;;;;43.20;11.10;;;;;;;13.81;89.87;101016.19;5051133;28;20032;-48
2023/07/18 08:22:01;;;;;;;36.45;10.70;;;;;;;13.81;90.17;101015.38;5051128;28;20517;-45
2023/07/18 08:24:27;;;;;;;39.90;11.68;;;;;;;13.82;90.14;101006.25;5049160;28;20029;-47
2023/07/18 08:26:53;;;;;;;32.15;11.65;;;;;;;13.75;90.24;101011.72;5048776;28;20040;-46
2023/07/18 08:29:20;;;;;;;47.70;11.88;;;;;;;13.72;90.48;101017.56;5049374;28;20029;-46
2023/07/18 08:31:46;;;;;;;45.88;10.73;;;;;;;13.80;89.99;101019.13;5045180;28;20087;-44
2023/07/18 08:34:13;;;;;;;42.53;11.00;;;;;;;13.73;90.52;101008.44;5049369;28;20082;-49
2023/07/18 08:36:39;;;;;;;35.30;11.38;;;;;;;13.69;91.07;101012.59;5050106;28;20506;-46
2023/07/18 08:39:05;;;;;;;41.85;11.82;;;;;;;13.76;90.40;101005.28;5048803;28;20029;-48
2023/07/18 08:41:34;;;;;;;40.58;11.75;;;;;;;13.82;90.14;101012.44;5048139;28;20372;-47
2023/07/18 08:44:03;;;;;;;59.88;13.23;;;;;;;13.74;90.84;101010.88;5048960;28;20033;-45
2023/07/18 08:46:29;;;;;;;36.67;10.80;;;;;;;13.81;89.67;101010.81;5049731;28;20017;-45
2023/07/18 08:48:56;;;;;;;49.83;11.90;;;;;;;13.74;90.66;101010.06;5047169;28;20079;-47
2023/07/18 08:51:23;;;;;;;38.45;10.88;;;;;;;13.71;90.89;101015.88;5050158;28;20060;-49
2023/07/18 08:53:49;;;;;;;43.75;11.60;;;;;;;13.63;91.19;101011.63;5050941;28;20025;-47
2023/07/18 08:56:15;;;;;;;38.90;11.80;;;;;;;13.70;90.97;101012.38;5048327;28;20025;-45
2023/07/18 08:58:42;;;;;;;46.13;11.55;;;;;;;13.71;91.16;101013.19;5049455;28;20044;-45
2023/07/18 09:01:08;;;;;;;49.33;13.55;;;;;;;13.67;91.45;101017.38;5048099;28;20104;-49
2023/07/18 09:03:35;;;;;;;47.22;11.77;;;;;;;13.68;91.25;101019.84;5047728;28;20044;-47
2023/07/18 09:06:16;;;;;;;36.40;11.00;;;;;;;13.76;90.69;101024.09;5035530;28;20037;-46
2023/07/18 09:08:43;;;;;;;39.97;11.10;;;;;;;13.72;90.74;101025.63;5054163;28;20033;-45
2023/07/18 09:11:14;;;;;;;43.08;11.98;;;;;;;13.65;91.19;101017.59;5051174;28;20021;-45
2023/07/18 09:13:42;;;;;;;48.35;12.07;;;;;;;13.69;90.97;101026.06;5040180;28;20033;-47
2023/07/18 09:16:20;;;;;;;38.58;11.55;;;;;;;13.62;91.19;101023.44;5048047;28;20041;-45
2023/07/18 09:18:55;;;;;;;44.30;12.18;;;;;;;13.60;91.74;101019.31;5051334;28;20506;-44
2023/07/18 09:21:22;;;;;;;43.20;12.85;;;;;;;13.66;91.23;101021.13;5052535;28;20032;-47
2023/07/18 09:23:50;;;;;;;39.17;11.00;;;;;;;13.61;91.49;101015.59;5054155;28;20021;-47
2023/07/18 09:26:20;;;;;;;36.88;11.75;;;;;;;13.63;91.60;101018.88;5051267;28;20438;-48
2023/07/18 09:28:48;;;;;;;47.20;11.93;;;;;;;13.66;91.12;101018.44;5051971;28;20025;-48
2023/07/18 09:31:18;;;;;;;42.95;12.32;;;;;;;13.53;91.82;101015.84;5049712;28;20036;-45
2023/07/18 09:33:50;;;;;;;60.42;12.27;;;;;;;13.55;91.81;101011.06;5049070;28;20029;-46
2023/07/18 09:36:21;;;;;;;49.53;13.27;;;;;;;13.54;91.91;101009.44;5052971;28;20479;-44
2023/07/18 09:38:49;;;;;;;42.15;11.55;;;;;;;13.58;91.55;101011.47;5051004;28;20502;-45
2023/07/18 09:41:22;;;;;;;31.55;11.13;;;;;;;13.49;92.43;101002.03;5051837;28;20029;-45
2023/07/18 09:43:49;;;;;;;42.33;11.75;;;;;;;13.46;92.38;100994.41;5053889;28;20029;-47
2023/07/18 09:46:17;;;;;;;57.65;13.93;;;;;;;13.34;92.88;100999.69;5052437;28;20032;-46
2023/07/18 09:48:45;;;;;;;43.28;12.32;;;;;;;13.36;92.84;101008.34;5053438;28;20032;-46
2023/07/18 09:51:15;;;;;;;41.40;12.30;;;;;;;13.30;93.27;100992.28;5053004;28;20080;-45
2023/07/18 09:53:46;;;;;;;36.03;11.07;;;;;;;13.36;93.09;101000.28;5051685;28;20025;-46
2023/07/18 09:56:17;;;;;;;40.22;12.07;;;;;;;13.42;92.60;100994.03;5052765;28;20033;-45
2023/07/18 09:58:48;;;;;;;41.78;12.70;;;;;;;13.41;92.52;100995.06;5051846;28;20108;-47
2023/07/18 10:01:21;;;;;;;44.63;11.77;;;;;;;13.37;92.84;100991.16;5050598;28;20041;-47
2023/07/18 10:03:52;;;;;;;50.03;12.82;;;;;;;13.45;92.50;100990.09;5045973;28;20029;-45
2023/07/18 10:06:19;;;;;;;36.38;11.73;;;;;;;13.29;93.19;100996.03;5051690;28;20437;-45
2023/07/18 10:08:46;;;;;;;46.53;12.40;;;;;;;13.32;93.37;100995.56;5050485;28;20032;-45
2023/07/18 10:11:14;;;;;;;47.75;12.95;;;;;;;13.40;92.98;100981.84;5047678;28;20036;-49
2023/07/18 10:13:56;;;;;;;43.25;12.10;;;;;;;13.31;93.42;100996.63;5053491;28;20032;-45
2023/07/18 10:16:26;;;;;;;28.83;11.02;;;;;;;13.36;93.46;101002.97;5035818;28;20129;-45
2023/07/18 10:18:53;;;;;;;42.10;11.82;;;;;;;13.26;93.88;100999.94;5052586;28;20039;-47
2023/07/18 10:21:43;;;;;;;57.88;12.30;;;;;;;13.19;94.35;101001.84;5053241;28;20135;-45
2023/07/18 10:24:23;;;;;;;45.00;12.00;;;;;;;13.31;93.92;101000.13;5047691;28;20736;-48
2023/07/18 10:26:52;;;;;;;47.45;12.25;;;;;;;13.29;94.23;101004.09;5050378;28;20036;-47
2023/07/18 10:29:19;;;;;;;50.92;13.05;;;;;;;13.19;94.47;100997.28;5045033;28;20021;-46
2023/07/18 10:31:45;;;;;;;35.78;11.60;;;;;;;13.20;94.55;101004.31;5046743;28;20450;-46
2023/07/18 10:34:18;;;;;;;45.53;12.07;;;;;;;13.24;94.34;101007.44;5051585;28;20029;-48
2023/07/18 10:37:01;;;;;;;56.92;13.65;;;;;;;13.19;94.63;100996.47;5051391;28;20021;-45
2023/07/18 10:39:38;;;;;;;42.67;13.20;;;;;;;13.10;95.07;101005.84;5049805;28;20025;-45
2023/07/18 10:42:09;;;;;;;46.75;13.30;;;;;;;13.22;94.75;101003.31;5046986;28;20151;-46
2023/07/18 10:44:38;;;;;;;47.13;12.68;;;;;;;13.19;94.61;101001.84;5052769;28;20030;-45
2023/07/18 10:47:16;;;;;;;48.40;12.73;;;;;;;13.24;94.71;101006.59;5052255;28;20025;-47
2023/07/18 10:49:43;;;;;;;44.00;12.63;;;;;;;13.15;95.35;101008.69;5051819;28;20438;-45
2023/07/18 10:52:09;;;;;;;37.40;11.73;;;;;;;13.21;94.73;100999.78;5049880;28;20127;-49
2023/07/18 10:54:36;;;;;;;51.63;11.93;;;;;;;13.19;94.68;101009.91;5044642;28;20288;-48
2023/07/18 10:57:04;;;;;;;43.00;11.60;;;;;;;13.16;94.41;101011.19;5041032;28;20021;-47
2023/07/18 10:59:30;;;;;;;43.13;12.40;;;;;;;13.20;93.95;101014.25;5052026;28;20110;-45
2023/07/18 11:02:00;;;;;;;34.40;11.32;;;;;;;13.12;95.39;101009.16;5050500;28;20093;-47
2023/07/18 11:04:28;;;;;;;51.47;13.15;;;;;;;13.13;94.92;101000.03;5051442;28;20082;-49
2023/07/18 11:06:55;;;;;;;41.22;11.68;;;;;;;13.18;94.74;101011.78;5051008;28;20033;-46
2023/07/18 11:09:22;;;;;;;42.85;12.73;;;;;;;13.18;94.89;101013.66;5049048;28;20020;-49
2023/07/18 11:11:49;;;;;;;42.63;12.32;;;;;;;13.17;95.11;101017.38;5045721;28;20040;-45
2023/07/18 11:14:16;;;;;;;35.53;11.50;;;;;;;13.11;95.40;101012.88;5050218;28;20057;-47
2023/07/18 11:16:43;;;;;;;41.90;12.95;;;;;;;13.08;95.72;101013.31;5049531;28;20057;-50